sensor_id;sensor_type;location;lat;lon;timestamp;pressure;altitude;pressure_sealevel;temperature;humidity
63881;BME280;50046;46.672;11.152;2022-07-23T00:00:01;98037.13;;;27.73;44.60
63881;BME280;50046;46.672;11.152;2022-07-23T00:00:12;98034.34;;;27.73;44.29
63881;BME280;50046;46.672;11.152;2022-07-23T00:00:23;98029.63;;;27.74;44.89
63881;BME280;50046;46.672;11.152;2022-07-23T00:00:33;98035.53;;;27.72;43.94
63881;BME280;50046;46.672;11.152;2022-07-23T00:00:44;98039.50;;;27.71;44.36
63881;BME280;50046;46.672;11.152;2022-07-23T00:00:54;98031.16;;;27.71;44.45
63881;BME280;50046;46.672;11.152;2022-07-23T00:01:05;98036.31;;;27.73;43.85
63881;BME280;50046;46.672;11.152;2022-07-23T00:01:15;98033.53;;;27.73;44.25
63881;BME280;50046;46.672;11.152;2022-07-23T00:01:25;98041.88;;;27.73;43.98
63881;BME280;50046;46.672;11.152;2022-07-23T00:01:37;98035.16;;;27.74;43.96
63881;BME280;50046;46.672;11.152;2022-07-23T00:01:48;98039.53;;;27.75;44.07
63881;BME280;50046;46.672;11.152;2022-07-23T00:01:58;98035.16;;;27.74;44.04
63881;BME280;50046;46.672;11.152;2022-07-23T00:02:09;98031.56;;;27.73;43.98
63881;BME280;50046;46.672;11.152;2022-07-23T00:02:19;98040.72;;;27.74;43.99
63881;BME280;50046;46.672;11.152;2022-07-23T00:02:29;98039.09;;;27.73;43.86
63881;BME280;50046;46.672;11.152;2022-07-23T00:02:40;98036.31;;;27.73;44.16
63881;BME280;50046;46.672;11.152;2022-07-23T00:02:50;98034.34;;;27.73;43.87
63881;BME280;50046;46.672;11.152;2022-07-23T00:03:01;98037.94;;;27.74;43.71
63881;BME280;50046;46.672;11.152;2022-07-23T00:03:11;98037.13;;;27.73;43.91
63881;BME280;50046;46.672;11.152;2022-07-23T00:03:21;98041.88;;;27.73;44.06
63881;BME280;50046;46.672;11.152;2022-07-23T00:03:32;98038.66;;;27.71;43.89
63881;BME280;50046;46.672;11.152;2022-07-23T00:03:42;98039.06;;;27.69;44.20
63881;BME280;50046;46.672;11.152;2022-07-23T00:03:53;98039.44;;;27.68;44.12
63881;BME280;50046;46.672;11.152;2022-07-23T00:04:04;98036.66;;;27.68;44.31
63881;BME280;50046;46.672;11.152;2022-07-23T00:04:14;98037.84;;;27.67;44.48
63881;BME280;50046;46.672;11.152;2022-07-23T00:04:25;98035.06;;;27.67;44.31
63881;BME280;50046;46.672;11.152;2022-07-23T00:04:35;98038.63;;;27.67;44.20
63881;BME280;50046;46.672;11.152;2022-07-23T00:04:45;98039.00;;;27.66;44.30
63881;BME280;50046;46.672;11.152;2022-07-23T00:04:56;98044.53;;;27.66;44.31
63881;BME280;50046;46.672;11.152;2022-07-23T00:05:07;98042.59;;;27.66;44.39
63881;BME280;50046;46.672;11.152;2022-07-23T00:05:17;98044.53;;;27.66;44.46
63881;BME280;50046;46.672;11.152;2022-07-23T00:05:28;98043.75;;;27.65;44.51
63881;BME280;50046;46.672;11.152;2022-07-23T00:05:39;98035.00;;;27.63;44.29
63881;BME280;50046;46.672;11.152;2022-07-23T00:05:49;98039.38;;;27.64;44.27
63881;BME280;50046;46.672;11.152;2022-07-23T00:06:00;98048.06;;;27.63;44.41
63881;BME280;50046;46.672;11.152;2022-07-23T00:06:10;98040.94;;;27.62;44.58
63881;BME280;50046;46.672;11.152;2022-07-23T00:06:22;98045.31;;;27.63;44.64
63881;BME280;50046;46.672;11.152;2022-07-23T00:06:32;98037.78;;;27.63;44.46
63881;BME280;50046;46.672;11.152;2022-07-23T00:06:43;98037.41;;;27.65;44.14
63881;BME280;50046;46.672;11.152;2022-07-23T00:06:53;98040.97;;;27.65;44.36
63881;BME280;50046;46.672;11.152;2022-07-23T00:07:03;98046.09;;;27.63;44.15
63881;BME280;50046;46.672;11.152;2022-07-23T00:07:14;98045.31;;;27.63;44.42
63881;BME280;50046;46.672;11.152;2022-07-23T00:07:24;98042.97;;;27.65;44.07
63881;BME280;50046;46.672;11.152;2022-07-23T00:07:35;98038.19;;;27.65;44.20
63881;BME280;50046;46.672;11.152;2022-07-23T00:07:45;98042.97;;;27.65;44.12
63881;BME280;50046;46.672;11.152;2022-07-23T00:07:55;98039.00;;;27.66;44.36
63881;BME280;50046;46.672;11.152;2022-07-23T00:08:06;98041.78;;;27.66;44.15
63881;BME280;50046;46.672;11.152;2022-07-23T00:08:17;98039.38;;;27.64;44.29
63881;BME280;50046;46.672;11.152;2022-07-23T00:08:28;98042.09;;;27.61;44.29
63881;BME280;50046;46.672;11.152;2022-07-23T00:08:38;98038.53;;;27.60;44.40
63881;BME280;50046;46.672;11.152;2022-07-23T00:08:48;98043.28;;;27.60;44.28
63881;BME280;50046;46.672;11.152;2022-07-23T00:08:59;98040.50;;;27.60;44.16
63881;BME280;50046;46.672;11.152;2022-07-23T00:09:09;98045.63;;;27.58;44.17
63881;BME280;50046;46.672;11.152;2022-07-23T00:09:20;98040.09;;;27.58;44.10
63881;BME280;50046;46.672;11.152;2022-07-23T00:09:30;98040.09;;;27.58;44.23
63881;BME280;50046;46.672;11.152;2022-07-23T00:09:41;98045.63;;;27.58;43.99
63881;BME280;50046;46.672;11.152;2022-07-23T00:09:51;98044.41;;;27.55;44.01
63881;BME280;50046;46.672;11.152;2022-07-23T00:10:03;98038.06;;;27.54;44.46
63881;BME280;50046;46.672;11.152;2022-07-23T00:10:13;98037.69;;;27.56;44.37
63881;BME280;50046;46.672;11.152;2022-07-23T00:10:24;98044.03;;;27.57;44.48
63881;BME280;50046;46.672;11.152;2022-07-23T00:10:34;98038.06;;;27.54;44.39
63881;BME280;50046;46.672;11.152;2022-07-23T00:10:44;98040.03;;;27.54;44.37
63881;BME280;50046;46.672;11.152;2022-07-23T00:10:55;98038.84;;;27.55;44.58
63881;BME280;50046;46.672;11.152;2022-07-23T00:11:05;98038.06;;;27.54;44.54
63881;BME280;50046;46.672;11.152;2022-07-23T00:11:16;98045.19;;;27.56;44.85
63881;BME280;50046;46.672;11.152;2022-07-23T00:11:27;98043.25;;;27.56;44.91
63881;BME280;50046;46.672;11.152;2022-07-23T00:11:37;98043.63;;;27.54;45.06
63881;BME280;50046;46.672;11.152;2022-07-23T00:11:48;98044.03;;;27.57;44.60
63881;BME280;50046;46.672;11.152;2022-07-23T00:11:58;98035.28;;;27.54;44.75
63881;BME280;50046;46.672;11.152;2022-07-23T00:12:08;98040.84;;;27.54;44.72
63881;BME280;50046;46.672;11.152;2022-07-23T00:12:19;98039.25;;;27.53;44.58
63881;BME280;50046;46.672;11.152;2022-07-23T00:12:29;98045.97;;;27.52;44.76
63881;BME280;50046;46.672;11.152;2022-07-23T00:12:40;98041.19;;;27.53;44.83
63881;BME280;50046;46.672;11.152;2022-07-23T00:12:50;98042.03;;;27.53;44.87
63881;BME280;50046;46.672;11.152;2022-07-23T00:13:02;98040.84;;;27.54;44.97
63881;BME280;50046;46.672;11.152;2022-07-23T00:13:13;98041.59;;;27.51;44.79
63881;BME280;50046;46.672;11.152;2022-07-23T00:13:23;98036.41;;;27.50;44.77
63881;BME280;50046;46.672;11.152;2022-07-23T00:13:34;98043.50;;;27.47;45.34
63881;BME280;50046;46.672;11.152;2022-07-23T00:13:44;98044.69;;;27.46;45.05
63881;BME280;50046;46.672;11.152;2022-07-23T00:13:54;98037.97;;;27.47;45.31
63881;BME280;50046;46.672;11.152;2022-07-23T00:14:06;98049.50;;;27.49;45.24
63881;BME280;50046;46.672;11.152;2022-07-23T00:14:16;98039.59;;;27.48;45.33
63881;BME280;50046;46.672;11.152;2022-07-23T00:14:26;98045.50;;;27.47;45.10
63881;BME280;50046;46.672;11.152;2022-07-23T00:14:37;98039.94;;;27.47;45.02
63881;BME280;50046;46.672;11.152;2022-07-23T00:14:47;98045.50;;;27.47;45.14
63881;BME280;50046;46.672;11.152;2022-07-23T00:14:58;98046.28;;;27.47;44.64
63881;BME280;50046;46.672;11.152;2022-07-23T00:15:09;98041.53;;;27.48;44.66
63881;BME280;50046;46.672;11.152;2022-07-23T00:15:19;98039.59;;;27.48;44.85
63881;BME280;50046;46.672;11.152;2022-07-23T00:15:30;98041.13;;;27.46;45.03
63881;BME280;50046;46.672;11.152;2022-07-23T00:15:40;98039.91;;;27.43;44.72
63881;BME280;50046;46.672;11.152;2022-07-23T00:15:50;98047.81;;;27.45;44.55
63881;BME280;50046;46.672;11.152;2022-07-23T00:16:01;98039.50;;;27.45;44.84
63881;BME280;50046;46.672;11.152;2022-07-23T00:16:12;98038.72;;;27.44;45.00
63881;BME280;50046;46.672;11.152;2022-07-23T00:16:22;98041.50;;;27.44;45.28
63881;BME280;50046;46.672;11.152;2022-07-23T00:16:32;98039.50;;;27.45;45.28
63881;BME280;50046;46.672;11.152;2022-07-23T00:16:43;98045.06;;;27.45;45.56
63881;BME280;50046;46.672;11.152;2022-07-23T00:16:53;98047.81;;;27.45;45.62
63881;BME280;50046;46.672;11.152;2022-07-23T00:17:04;98043.06;;;27.45;45.53
63881;BME280;50046;46.672;11.152;2022-07-23T00:17:14;98043.47;;;27.44;45.61
63881;BME280;50046;46.672;11.152;2022-07-23T00:17:24;98037.53;;;27.45;45.59
63881;BME280;50046;46.672;11.152;2022-07-23T00:17:35;98041.50;;;27.44;45.48
63881;BME280;50046;46.672;11.152;2022-07-23T00:17:45;98039.91;;;27.43;45.66
63881;BME280;50046;46.672;11.152;2022-07-23T00:17:56;98043.47;;;27.44;45.66
63881;BME280;50046;46.672;11.152;2022-07-23T00:18:06;98045.44;;;27.43;45.59
63881;BME280;50046;46.672;11.152;2022-07-23T00:18:16;98039.91;;;27.43;45.53
63881;BME280;50046;46.672;11.152;2022-07-23T00:18:27;98043.84;;;27.42;45.17
63881;BME280;50046;46.672;11.152;2022-07-23T00:18:37;98040.25;;;27.42;45.05
63881;BME280;50046;46.672;11.152;2022-07-23T00:18:48;98043.84;;;27.42;44.78
63881;BME280;50046;46.672;11.152;2022-07-23T00:18:58;98042.25;;;27.41;44.92
63881;BME280;50046;46.672;11.152;2022-07-23T00:19:11;98041.06;;;27.42;44.44
63881;BME280;50046;46.672;11.152;2022-07-23T00:19:21;98043.84;;;27.42;44.51
63881;BME280;50046;46.672;11.152;2022-07-23T00:19:32;98041.06;;;27.42;44.57
63881;BME280;50046;46.672;11.152;2022-07-23T00:19:42;98048.59;;;27.42;44.50
63881;BME280;50046;46.672;11.152;2022-07-23T00:19:53;98040.25;;;27.42;44.48
63881;BME280;50046;46.672;11.152;2022-07-23T00:20:04;98045.81;;;27.42;44.52
63881;BME280;50046;46.672;11.152;2022-07-23T00:20:15;98033.13;;;27.41;44.30
63881;BME280;50046;46.672;11.152;2022-07-23T00:20:25;98040.63;;;27.40;44.02
63881;BME280;50046;46.672;11.152;2022-07-23T00:20:35;98043.03;;;27.42;44.38
63881;BME280;50046;46.672;11.152;2022-07-23T00:20:46;98035.91;;;27.41;44.34
63881;BME280;50046;46.672;11.152;2022-07-23T00:20:56;98039.47;;;27.41;44.33
63881;BME280;50046;46.672;11.152;2022-07-23T00:21:07;98039.84;;;27.40;44.52
63881;BME280;50046;46.672;11.152;2022-07-23T00:21:18;98045.38;;;27.40;44.52
63881;BME280;50046;46.672;11.152;2022-07-23T00:21:28;98044.22;;;27.41;44.68
63881;BME280;50046;46.672;11.152;2022-07-23T00:21:38;98042.25;;;27.41;44.70
63881;BME280;50046;46.672;11.152;2022-07-23T00:21:49;98043.84;;;27.42;45.10
63881;BME280;50046;46.672;11.152;2022-07-23T00:21:59;98043.03;;;27.42;44.76
63881;BME280;50046;46.672;11.152;2022-07-23T00:22:10;98041.06;;;27.42;44.74
63881;BME280;50046;46.672;11.152;2022-07-23T00:22:20;98040.63;;;27.40;44.67
63881;BME280;50046;46.672;11.152;2022-07-23T00:22:31;98046.56;;;27.39;44.83
63881;BME280;50046;46.672;11.152;2022-07-23T00:22:51;98040.59;;;27.37;45.25
63881;BME280;50046;46.672;11.152;2022-07-23T00:23:02;98051.31;;;27.38;45.15
63881;BME280;50046;46.672;11.152;2022-07-23T00:23:13;98047.72;;;27.38;45.39
63881;BME280;50046;46.672;11.152;2022-07-23T00:23:23;98050.94;;;27.40;45.62
63881;BME280;50046;46.672;11.152;2022-07-23T00:23:35;98047.72;;;27.38;45.20
63881;BME280;50046;46.672;11.152;2022-07-23T00:23:45;98050.09;;;27.36;44.71
63881;BME280;50046;46.672;11.152;2022-07-23T00:23:56;98048.47;;;27.35;45.16
63881;BME280;50046;46.672;11.152;2022-07-23T00:24:06;98048.88;;;27.33;45.11
63881;BME280;50046;46.672;11.152;2022-07-23T00:24:17;98054.34;;;27.29;44.99
63881;BME280;50046;46.672;11.152;2022-07-23T00:24:27;98044.44;;;27.28;45.19
63881;BME280;50046;46.672;11.152;2022-07-23T00:24:37;98053.13;;;27.27;45.25
63881;BME280;50046;46.672;11.152;2022-07-23T00:24:48;98042.41;;;27.25;45.48
63881;BME280;50046;46.672;11.152;2022-07-23T00:24:58;98050.31;;;27.23;45.50
63881;BME280;50046;46.672;11.152;2022-07-23T00:25:09;98048.69;;;27.22;45.69
63881;BME280;50046;46.672;11.152;2022-07-23T00:25:20;98052.66;;;27.21;45.50
63881;BME280;50046;46.672;11.152;2022-07-23T00:25:31;98049.81;;;27.18;45.59
63881;BME280;50046;46.672;11.152;2022-07-23T00:25:41;98055.78;;;27.20;45.92
63881;BME280;50046;46.672;11.152;2022-07-23T00:25:52;98047.91;;;27.22;45.57
63881;BME280;50046;46.672;11.152;2022-07-23T00:26:02;98047.53;;;27.23;45.51
63881;BME280;50046;46.672;11.152;2022-07-23T00:26:12;98047.13;;;27.25;45.61
63881;BME280;50046;46.672;11.152;2022-07-23T00:26:23;98050.34;;;27.27;45.67
63881;BME280;50046;46.672;11.152;2022-07-23T00:26:33;98050.75;;;27.25;45.55
63881;BME280;50046;46.672;11.152;2022-07-23T00:26:44;98049.91;;;27.25;45.38
63881;BME280;50046;46.672;11.152;2022-07-23T00:26:54;98051.88;;;27.24;45.80
63881;BME280;50046;46.672;11.152;2022-07-23T00:27:04;98049.91;;;27.25;45.71
63881;BME280;50046;46.672;11.152;2022-07-23T00:27:15;98048.75;;;27.26;45.56
63881;BME280;50046;46.672;11.152;2022-07-23T00:27:25;98054.66;;;27.24;45.64
63881;BME280;50046;46.672;11.152;2022-07-23T00:27:36;98049.91;;;27.25;45.40
63881;BME280;50046;46.672;11.152;2022-07-23T00:27:46;98056.28;;;27.25;45.63
63881;BME280;50046;46.672;11.152;2022-07-23T00:27:57;98052.28;;;27.23;45.50
63881;BME280;50046;46.672;11.152;2022-07-23T00:28:08;98059.41;;;27.24;45.39
63881;BME280;50046;46.672;11.152;2022-07-23T00:28:18;98058.63;;;27.23;45.52
63881;BME280;50046;46.672;11.152;2022-07-23T00:28:29;98056.22;;;27.22;45.33
63881;BME280;50046;46.672;11.152;2022-07-23T00:28:39;98052.22;;;27.19;45.68
63881;BME280;50046;46.672;11.152;2022-07-23T00:28:49;98052.59;;;27.18;45.99
63881;BME280;50046;46.672;11.152;2022-07-23T00:29:00;98059.25;;;27.17;45.96
63881;BME280;50046;46.672;11.152;2022-07-23T00:29:10;98051.69;;;27.14;46.25
63881;BME280;50046;46.672;11.152;2022-07-23T00:29:21;98052.50;;;27.14;46.07
63881;BME280;50046;46.672;11.152;2022-07-23T00:29:31;98058.84;;;27.15;46.30
63881;BME280;50046;46.672;11.152;2022-07-23T00:29:41;98052.94;;;27.16;45.94
63881;BME280;50046;46.672;11.152;2022-07-23T00:29:52;98056.50;;;27.17;45.79
63881;BME280;50046;46.672;11.152;2022-07-23T00:30:02;98051.41;;;27.19;45.73
63881;BME280;50046;46.672;11.152;2022-07-23T00:30:13;98050.63;;;27.18;45.62
63881;BME280;50046;46.672;11.152;2022-07-23T00:30:23;98058.84;;;27.15;45.87
63881;BME280;50046;46.672;11.152;2022-07-23T00:30:34;98054.13;;;27.15;46.00
63881;BME280;50046;46.672;11.152;2022-07-23T00:30:44;98050.53;;;27.15;46.05
63881;BME280;50046;46.672;11.152;2022-07-23T00:30:55;98051.34;;;27.15;46.18
63881;BME280;50046;46.672;11.152;2022-07-23T00:31:05;98050.16;;;27.16;45.85
63881;BME280;50046;46.672;11.152;2022-07-23T00:31:16;98053.72;;;27.17;46.00
63881;BME280;50046;46.672;11.152;2022-07-23T00:31:26;98045.41;;;27.17;46.25
63881;BME280;50046;46.672;11.152;2022-07-23T00:31:37;98048.97;;;27.17;46.17
63881;BME280;50046;46.672;11.152;2022-07-23T00:31:48;98048.56;;;27.15;46.17
63881;BME280;50046;46.672;11.152;2022-07-23T00:31:58;98051.34;;;27.15;46.02
63881;BME280;50046;46.672;11.152;2022-07-23T00:32:08;98044.97;;;27.15;46.22
63881;BME280;50046;46.672;11.152;2022-07-23T00:32:19;98049.81;;;27.18;46.15
63881;BME280;50046;46.672;11.152;2022-07-23T00:32:29;98047.38;;;27.16;46.21
63881;BME280;50046;46.672;11.152;2022-07-23T00:32:49;98052.94;;;27.16;45.96
63881;BME280;50046;46.672;11.152;2022-07-23T00:33:07;98049.38;;;27.16;46.42
63881;BME280;50046;46.672;11.152;2022-07-23T00:33:17;98044.97;;;27.15;46.41
63881;BME280;50046;46.672;11.152;2022-07-23T00:33:28;98048.56;;;27.15;46.12
63881;BME280;50046;46.672;11.152;2022-07-23T00:33:38;98046.94;;;27.14;46.46
63881;BME280;50046;46.672;11.152;2022-07-23T00:33:49;98042.22;;;27.15;46.43
63881;BME280;50046;46.672;11.152;2022-07-23T00:33:59;98045.81;;;27.15;46.13
63881;BME280;50046;46.672;11.152;2022-07-23T00:34:11;98044.19;;;27.14;46.19
63881;BME280;50046;46.672;11.152;2022-07-23T00:34:21;98047.75;;;27.15;46.50
63881;BME280;50046;46.672;11.152;2022-07-23T00:34:32;98050.91;;;27.13;46.60
63881;BME280;50046;46.672;11.152;2022-07-23T00:34:42;98039.44;;;27.15;46.77
63881;BME280;50046;46.672;11.152;2022-07-23T00:34:52;98044.19;;;27.14;46.29
63881;BME280;50046;46.672;11.152;2022-07-23T00:35:03;98044.19;;;27.14;46.74
63881;BME280;50046;46.672;11.152;2022-07-23T00:35:14;98045.72;;;27.11;46.93
63881;BME280;50046;46.672;11.152;2022-07-23T00:35:26;98044.94;;;27.11;46.86
63881;BME280;50046;46.672;11.152;2022-07-23T00:35:38;98040.56;;;27.10;47.17
63881;BME280;50046;46.672;11.152;2022-07-23T00:35:50;98042.53;;;27.09;47.05
63881;BME280;50046;46.672;11.152;2022-07-23T00:36:01;98036.19;;;27.09;47.38
63881;BME280;50046;46.672;11.152;2022-07-23T00:36:11;98040.13;;;27.08;47.31
63881;BME280;50046;46.672;11.152;2022-07-23T00:36:25;98038.13;;;27.05;47.07
63881;BME280;50046;46.672;11.152;2022-07-23T00:36:35;98038.06;;;27.01;46.97
63881;BME280;50046;46.672;11.152;2022-07-23T00:36:45;98028.94;;;27.01;46.73
63881;BME280;50046;46.672;11.152;2022-07-23T00:36:56;98038.06;;;27.01;46.73
63881;BME280;50046;46.672;11.152;2022-07-23T00:37:06;98036.06;;;27.02;46.86
63881;BME280;50046;46.672;11.152;2022-07-23T00:37:17;98044.78;;;27.00;47.05
63881;BME280;50046;46.672;11.152;2022-07-23T00:37:27;98034.84;;;26.99;47.26
63881;BME280;50046;46.672;11.152;2022-07-23T00:37:37;98036.03;;;26.98;47.05
63881;BME280;50046;46.672;11.152;2022-07-23T00:37:48;98038.38;;;26.96;47.39
63881;BME280;50046;46.672;11.152;2022-07-23T00:37:59;98041.94;;;26.97;47.13
63881;BME280;50046;46.672;11.152;2022-07-23T00:38:10;98033.63;;;26.97;46.98
63881;BME280;50046;46.672;11.152;2022-07-23T00:38:21;98042.31;;;26.95;47.11
63881;BME280;50046;46.672;11.152;2022-07-23T00:38:31;98042.31;;;26.95;46.90
63881;BME280;50046;46.672;11.152;2022-07-23T00:38:41;98039.16;;;26.97;47.36
63881;BME280;50046;46.672;11.152;2022-07-23T00:38:52;98035.22;;;26.98;46.99
63881;BME280;50046;46.672;11.152;2022-07-23T00:39:02;98037.22;;;26.97;47.00
63881;BME280;50046;46.672;11.152;2022-07-23T00:39:13;98036.78;;;26.95;47.11
63881;BME280;50046;46.672;11.152;2022-07-23T00:39:23;98038.75;;;26.95;47.02
63881;BME280;50046;46.672;11.152;2022-07-23T00:39:33;98037.56;;;26.96;47.13
63881;BME280;50046;46.672;11.152;2022-07-23T00:39:44;98041.13;;;26.96;47.11
63881;BME280;50046;46.672;11.152;2022-07-23T00:39:54;98039.91;;;26.94;46.82
63881;BME280;50046;46.672;11.152;2022-07-23T00:40:05;98040.69;;;26.94;46.94
63881;BME280;50046;46.672;11.152;2022-07-23T00:40:16;98037.94;;;26.94;46.84
63881;BME280;50046;46.672;11.152;2022-07-23T00:40:27;98039.13;;;26.93;47.03
63881;BME280;50046;46.672;11.152;2022-07-23T00:40:38;98036.34;;;26.93;46.85
63881;BME280;50046;46.672;11.152;2022-07-23T00:40:49;98038.75;;;26.95;46.65
63881;BME280;50046;46.672;11.152;2022-07-23T00:40:59;98043.47;;;26.94;46.95
63881;BME280;50046;46.672;11.152;2022-07-23T00:41:10;98039.13;;;26.93;46.75
63881;BME280;50046;46.672;11.152;2022-07-23T00:41:20;98035.97;;;26.95;47.02
63881;BME280;50046;46.672;11.152;2022-07-23T00:41:30;98041.09;;;26.93;46.72
63881;BME280;50046;46.672;11.152;2022-07-23T00:41:41;98042.25;;;26.92;46.72
63881;BME280;50046;46.672;11.152;2022-07-23T00:41:52;98037.09;;;26.90;46.99
63881;BME280;50046;46.672;11.152;2022-07-23T00:42:02;98029.94;;;26.89;47.24
63881;BME280;50046;46.672;11.152;2022-07-23T00:42:13;98042.25;;;26.92;47.04
63881;BME280;50046;46.672;11.152;2022-07-23T00:42:23;98036.34;;;26.93;47.17
63881;BME280;50046;46.672;11.152;2022-07-23T00:42:34;98036.69;;;26.92;47.44
63881;BME280;50046;46.672;11.152;2022-07-23T00:42:44;98035.56;;;26.93;46.92
63881;BME280;50046;46.672;11.152;2022-07-23T00:42:55;98042.19;;;26.88;47.29
63881;BME280;50046;46.672;11.152;2022-07-23T00:43:05;98042.94;;;26.85;47.54
63881;BME280;50046;46.672;11.152;2022-07-23T00:43:16;98042.16;;;26.84;47.37
63881;BME280;50046;46.672;11.152;2022-07-23T00:43:26;98047.31;;;26.86;47.23
63881;BME280;50046;46.672;11.152;2022-07-23T00:43:37;98041.31;;;26.84;47.22
63881;BME280;50046;46.672;11.152;2022-07-23T00:43:47;98038.19;;;26.85;47.18
63881;BME280;50046;46.672;11.152;2022-07-23T00:44:17;98047.31;;;26.86;47.26
63881;BME280;50046;46.672;11.152;2022-07-23T00:44:28;98046.16;;;26.87;47.42
63881;BME280;50046;46.672;11.152;2022-07-23T00:44:38;98038.94;;;26.82;47.37
63881;BME280;50046;46.672;11.152;2022-07-23T00:44:49;98040.47;;;26.80;47.61
63881;BME280;50046;46.672;11.152;2022-07-23T00:44:59;98040.47;;;26.80;47.64
63881;BME280;50046;46.672;11.152;2022-07-23T00:45:10;98037.28;;;26.78;47.71
63881;BME280;50046;46.672;11.152;2022-07-23T00:45:20;98045.59;;;26.78;47.99
63881;BME280;50046;46.672;11.152;2022-07-23T00:45:31;98034.50;;;26.78;47.95
63881;BME280;50046;46.672;11.152;2022-07-23T00:45:41;98046.03;;;26.80;47.51
63881;BME280;50046;46.672;11.152;2022-07-23T00:45:52;98038.50;;;26.80;47.84
63881;BME280;50046;46.672;11.152;2022-07-23T00:46:02;98041.28;;;26.80;47.52
63881;BME280;50046;46.672;11.152;2022-07-23T00:46:13;98039.31;;;26.81;47.71
63881;BME280;50046;46.672;11.152;2022-07-23T00:46:23;98036.09;;;26.79;47.55
63881;BME280;50046;46.672;11.152;2022-07-23T00:46:35;98038.50;;;26.80;47.94
63881;BME280;50046;46.672;11.152;2022-07-23T00:46:48;98037.31;;;26.81;47.90
63881;BME280;50046;46.672;11.152;2022-07-23T00:46:59;98040.91;;;26.82;47.45
63881;BME280;50046;46.672;11.152;2022-07-23T00:47:09;98042.06;;;26.81;47.45
63881;BME280;50046;46.672;11.152;2022-07-23T00:47:20;98049.22;;;26.82;47.56
63881;BME280;50046;46.672;11.152;2022-07-23T00:47:30;98039.31;;;26.81;47.64
63881;BME280;50046;46.672;11.152;2022-07-23T00:47:41;98041.28;;;26.80;47.78
63881;BME280;50046;46.672;11.152;2022-07-23T00:47:51;98044.41;;;26.79;47.75
63881;BME280;50046;46.672;11.152;2022-07-23T00:48:02;98049.09;;;26.75;47.96
63881;BME280;50046;46.672;11.152;2022-07-23T00:48:12;98049.03;;;26.71;48.15
63881;BME280;50046;46.672;11.152;2022-07-23T00:48:23;98047.44;;;26.70;47.75
63881;BME280;50046;46.672;11.152;2022-07-23T00:48:33;98048.97;;;26.67;47.91
63881;BME280;50046;46.672;11.152;2022-07-23T00:48:44;98041.47;;;26.68;47.63
63881;BME280;50046;46.672;11.152;2022-07-23T00:48:54;98046.25;;;26.71;47.97
63881;BME280;50046;46.672;11.152;2022-07-23T00:49:04;98053.84;;;26.74;47.75
63881;BME280;50046;46.672;11.152;2022-07-23T00:49:15;98051.00;;;26.71;48.12
63881;BME280;50046;46.672;11.152;2022-07-23T00:49:28;98045.84;;;26.69;47.94
63881;BME280;50046;46.672;11.152;2022-07-23T00:49:39;98046.66;;;26.70;47.78
63881;BME280;50046;46.672;11.152;2022-07-23T00:49:49;98049.03;;;26.71;48.11
63881;BME280;50046;46.672;11.152;2022-07-23T00:50:00;98043.50;;;26.71;47.78
63881;BME280;50046;46.672;11.152;2022-07-23T00:50:10;98046.22;;;26.67;48.17
63881;BME280;50046;46.672;11.152;2022-07-23T00:50:21;98045.41;;;26.67;48.04
63881;BME280;50046;46.672;11.152;2022-07-23T00:50:32;98048.53;;;26.65;48.38
63881;BME280;50046;46.672;11.152;2022-07-23T00:50:43;98041.84;;;26.66;48.40
63881;BME280;50046;46.672;11.152;2022-07-23T00:50:54;98045.78;;;26.65;48.03
63881;BME280;50046;46.672;11.152;2022-07-23T00:51:04;98047.78;;;26.68;48.21
63881;BME280;50046;46.672;11.152;2022-07-23T00:51:15;98049.78;;;26.68;48.20
63881;BME280;50046;46.672;11.152;2022-07-23T00:51:26;98047.38;;;26.66;48.36
63881;BME280;50046;46.672;11.152;2022-07-23T00:51:36;98046.56;;;26.66;48.15
63881;BME280;50046;46.672;11.152;2022-07-23T00:51:48;98051.69;;;26.64;48.36
63881;BME280;50046;46.672;11.152;2022-07-23T00:52:01;98043.75;;;26.62;48.55
63881;BME280;50046;46.672;11.152;2022-07-23T00:52:11;98046.50;;;26.62;48.87
63881;BME280;50046;46.672;11.152;2022-07-23T00:52:22;98054.03;;;26.62;48.83
63881;BME280;50046;46.672;11.152;2022-07-23T00:52:33;98046.06;;;26.60;48.58
63881;BME280;50046;46.672;11.152;2022-07-23T00:52:44;98051.25;;;26.62;48.50
63881;BME280;50046;46.672;11.152;2022-07-23T00:52:56;98051.25;;;26.62;48.55
63881;BME280;50046;46.672;11.152;2022-07-23T00:53:06;98049.63;;;26.61;48.60
63881;BME280;50046;46.672;11.152;2022-07-23T00:53:19;98048.06;;;26.60;48.73
63881;BME280;50046;46.672;11.152;2022-07-23T00:53:30;98054.38;;;26.60;48.76
63881;BME280;50046;46.672;11.152;2022-07-23T00:53:42;98046.47;;;26.59;48.71
63881;BME280;50046;46.672;11.152;2022-07-23T00:53:52;98050.47;;;26.61;48.74
63881;BME280;50046;46.672;11.152;2022-07-23T00:54:03;98043.31;;;26.60;48.32
63881;BME280;50046;46.672;11.152;2022-07-23T00:54:13;98048.50;;;26.62;48.63
63881;BME280;50046;46.672;11.152;2022-07-23T00:54:25;98053.66;;;26.63;48.41
63881;BME280;50046;46.672;11.152;2022-07-23T00:54:36;98052.84;;;26.63;48.42
63881;BME280;50046;46.672;11.152;2022-07-23T00:54:46;98046.50;;;26.62;47.97
63881;BME280;50046;46.672;11.152;2022-07-23T00:54:57;98054.38;;;26.60;47.95
63881;BME280;50046;46.672;11.152;2022-07-23T00:55:10;98045.72;;;26.62;48.07
63881;BME280;50046;46.672;11.152;2022-07-23T00:55:20;98052.06;;;26.62;48.37
63881;BME280;50046;46.672;11.152;2022-07-23T00:55:31;98052.06;;;26.62;48.19
63881;BME280;50046;46.672;11.152;2022-07-23T00:55:42;98048.50;;;26.62;48.50
63881;BME280;50046;46.672;11.152;2022-07-23T00:55:53;98050.47;;;26.61;48.10
63881;BME280;50046;46.672;11.152;2022-07-23T00:56:04;98053.66;;;26.63;47.75
63881;BME280;50046;46.672;11.152;2022-07-23T00:56:15;98054.47;;;26.64;47.86